Nearby METAR Reports

 

KGSP - Greer/Spartansbg, South Carolina, USA
Distance from station: E 4mi, 6km
Updated: Tue, 17-May-2022 8:53am EDT
Clear
Clear
 Wind from N
Wind: N 3 mph , 6 km/h
Temperature: 66°F , 19°C
Dew Point: 50°F , 10°C
Humidity: 56%
Barometer: 30.06 inHg , 1017.9 hPa
Clouds: Clear
Visibility: 10 miles , 16 km
2022/05/17 12:53 KGSP 171253Z 01003KT 10SM CLR 19/10 A3006 RMK AO2 SLP168 T01940100
KGMU - Greenville, South Carolina, USA
Distance from station: SW 5mi, 8km
Updated: Tue, 17-May-2022 8:53am EDT
Clear
Clear
 Wind from N
Wind: N 8 mph , 13 km/h
Temperature: 72°F , 22°C
Dew Point: 48°F , 9°C
Humidity: 44%
Barometer: 30.06 inHg , 1017.9 hPa
Clouds: Clear
Visibility: 10 miles , 16 km
2022/05/17 12:53 KGMU 171253Z 36007KT 10SM CLR 22/09 A3006 RMK AO2 SLP169 T02220094
 
KGYH - Greenville, South Carolina, USA
Distance from station: SSW 11mi, 18km
Updated: Tue, 17-May-2022 8:47am EDT
Clear
Clear
 Wind from NE
Wind: NE 8 mph , 13 km/h
Temperature: 70°F , 21°C
Dew Point: 50°F , 10°C
Humidity: 50%
Barometer: 30.05 inHg , 1017.6 hPa
Clouds: Clear
Visibility: 10 miles , 16 km
2022/05/17 12:47 KGYH 171247Z 05007KT 10SM CLR 21/10 A3005
KSPA - Spartanburg, South Carolina, USA
Distance from station: E 20mi, 32km
Updated: Tue, 17-May-2022 9:15am EDT
Clear
Clear
 Wind from N
Wind: N 7 mph , 11 km/h
Temperature: 70°F , 21°C
Dew Point: 46°F , 8°C
Humidity: 43%
Barometer: 30.05 inHg , 1017.6 hPa
Clouds: Clear
Visibility: 10 miles , 16 km
2022/05/17 13:15 KSPA 171315Z AUTO 01006KT 10SM CLR 21/08 A3005 RMK AO2
 
KLQK - Pickens, South Carolina, USA
Distance from station: WSW 24mi, 39km
Updated: Tue, 17-May-2022 9:15am EDT
Clear
Clear
 Wind from calm
Wind: Calm
Temperature: 68°F , 20°C
Dew Point: 54°F , 12°C
Humidity: 60%
Barometer: 30.06 inHg , 1017.9 hPa
Clouds: Clear
Visibility: 10 miles , 16 km
2022/05/17 13:15 KLQK 171315Z AUTO 00000KT 10SM CLR 20/12 A3006 RMK AO2 T01960118
KLUX - Laurens, South Carolina, USA
Distance from station: SE 33mi, 54km
Updated: Tue, 17-May-2022 9:15am EDT
Clear
Clear
 Wind from NNE
Wind: NNE 3 mph , 6 km/h
Temperature: 68°F , 20°C
Dew Point: 52°F , 11°C
Humidity: 56%
Barometer: 30.05 inHg , 1017.6 hPa
Clouds: Clear
Visibility: 10 miles , 16 km
2022/05/17 13:15 KLUX 171315Z AUTO 03003KT 10SM CLR 20/11 A3005 RMK AO2
 
KAND - Anderson, South Carolina, USA
Distance from station: SW 37mi, 59km
Updated: Tue, 17-May-2022 8:56am EDT
Clear
Clear
 Wind from N
Wind: N 3 mph , 6 km/h
Temperature: 70°F , 21°C
Dew Point: 52°F , 11°C
Humidity: 53%
Barometer: 30.05 inHg , 1017.6 hPa
Clouds: Clear
Visibility: 10 miles , 16 km
2022/05/17 12:56 KAND 171256Z AUTO 01003KT 10SM CLR 21/11 A3005 RMK AO2 SLP165 T02110111
KCEU - Clemson, South Carolina, USA
Distance from station: WSW 37mi, 60km
Updated: Tue, 17-May-2022 8:54am EDT
Clear
Clear
 Wind from NNW
Wind: NNW 7 mph , 11 km/h
Temperature: 66°F , 19°C
Dew Point: 52°F , 11°C
Humidity: 60%
Barometer: 30.06 inHg , 1017.9 hPa
Clouds: Clear
Visibility: 10 miles , 16 km
2022/05/17 12:54 KCEU 171254Z AUTO 34006KT 10SM CLR 19/11 A3006 RMK AO2 SLP170 T01890111
 
KAVL - Asheville, North Carolina, USA
Distance from station: NNW 40mi, 64km
Updated: Tue, 17-May-2022 8:54am EDT
Clear
Clear
 Wind from N
Wind: N 6 mph , 9 km/h
Temperature: 61°F , 16°C
Dew Point: 48°F , 9°C
Humidity: 63%
Barometer: 30.10 inHg , 1019.3 hPa
Clouds: Clear
Visibility: 10 miles , 16 km
2022/05/17 12:54 KAVL 171254Z 01005KT 10SM CLR 16/09 A3010 RMK AO2 SLP173 T01610089
KFQD - Rutherfordton, North Carolina, USA
Distance from station: NNE 41mi, 66km
Updated: Tue, 17-May-2022 9:15am EDT
Clear
Clear
 Wind from NW
Wind: NW 3 mph , 6 km/h
Temperature: 64°F , 18°C
Dew Point: 50°F , 10°C
Humidity: 60%
Barometer: 30.08 inHg , 1018.6 hPa
Clouds: Clear
Visibility: 10 miles , 16 km
2022/05/17 13:15 KFQD 171315Z AUTO 32003KT 10SM CLR 18/10 A3008 RMK AO2
 
KGRD - Greenwood, South Carolina, USA
Distance from station: S 45mi, 73km
Updated: Tue, 17-May-2022 8:56am EDT
Clear
Clear
 Wind from NNE
Wind: NNE 7 mph , 11 km/h
Temperature: 66°F , 19°C
Dew Point: 54°F , 12°C
Humidity: 64%
Barometer: 30.05 inHg , 1017.6 hPa
Clouds: Clear
Visibility: 10 miles , 16 km
2022/05/17 12:56 KGRD 171256Z AUTO 02006KT 10SM CLR 19/12 A3005 RMK AO2 SLP170 T01940117
KEHO - Shelby Muni, North Carolina, USA
Distance from station: ENE 46mi, 74km
Updated: Tue, 17-May-2022 9:15am EDT
Clear
Clear
 Wind from NW
Wind: NW 3 mph , 6 km/h
Temperature: 66°F , 19°C
Dew Point: 54°F , 12°C
Humidity: 64%
Barometer: 30.06 inHg , 1017.9 hPa
Clouds: Clear
Visibility: 10 miles , 16 km
2022/05/17 13:15 KEHO 171315Z AUTO 31003KT 10SM CLR 19/12 A3006 RMK AO2 T01880117